Time;durP1;ratioP1;P1;durP2;ratioP2;P2;SDS_P1;SDS_P2;PMS_P1;PMS_P2;Temp;Humidity;BMP_temperature;BMP_pressure;BME280_temperature;BME280_humidity;BME280_pressure;Samples;Min_cycle;Max_cycle;Signal;HPM_P1;HPM_P2
2022/07/29 00:02:19;;;;;;;6.63;4.53;;;;;;;;;;5112072;27;20420;-70
2022/07/29 00:05:59;;;;;;;7.35;4.90;;;;;;;;;;5111070;27;20419;-70
2022/07/29 00:08:25;;;;;;;7.10;4.47;;;;;;;;;;5109984;28;20433;-70
2022/07/29 00:14:50;;;;;;;9.30;4.65;;;;;;;;;;5111269;27;20428;-70
2022/07/29 00:17:16;;;;;;;7.13;4.35;;;;;;;;;;5111341;28;20035;-69
2022/07/29 00:22:55;;;;;;;6.95;4.10;;;;;;;;;;5112142;27;20430;-69
2022/07/29 00:25:22;;;;;;;7.07;3.83;;;;;;;;;;5110831;28;20028;-70
2022/07/29 00:29:37;;;;;;;7.90;4.43;;;;;;;;;;5112047;27;20590;-71
2022/07/29 00:32:04;;;;;;;7.07;4.63;;;;;;;;;;5111324;28;20027;-71
2022/07/29 00:38:02;;;;;;;5.35;3.55;;;;;;;;;;5111352;27;20424;-70
2022/07/29 00:40:28;;;;;;;6.20;3.88;;;;;;;;;;5126738;28;20066;-70
2022/07/29 00:44:53;;;;;;;7.82;4.30;;;;;;;;;;5112034;27;20454;-70
2022/07/29 00:47:19;;;;;;;7.38;4.45;;;;;;;;;;5110881;28;20020;-70
2022/07/29 00:49:45;;;;;;;6.95;4.20;;;;;;;;;;5111249;28;20023;-70
2022/07/29 00:55:04;;;;;;;6.65;4.53;;;;;;;;;;5111198;27;20457;-70
2022/07/29 00:57:30;;;;;;;7.15;4.72;;;;;;;;;;5111323;28;20077;-70
2022/07/29 00:59:56;;;;;;;6.85;4.38;;;;;;;;;;5111232;28;20020;-70
2022/07/29 01:03:59;;;;;;;10.00;4.97;;;;;;;;;;5111448;27;20388;-70
2022/07/29 01:09:43;;;;;;;7.45;4.80;;;;;;;;;;5111135;27;20919;-70
2022/07/29 01:12:34;;;;;;;7.05;4.40;;;;;;;;;;5071135;28;20434;-70
2022/07/29 01:15:01;;;;;;;8.45;4.88;;;;;;;;;;5068651;28;20048;-70
2022/07/29 01:17:32;;;;;;;6.40;3.80;;;;;;;;;;5070712;28;20036;-70
2022/07/29 01:23:11;;;;;;;7.38;4.22;;;;;;;;;;5111242;27;20430;-70
2022/07/29 01:25:47;;;;;;;6.97;4.72;;;;;;;;;;5111326;28;20032;-70
2022/07/29 01:30:17;;;;;;;7.68;4.85;;;;;;;;;;5111052;27;20880;-71
2022/07/29 01:32:44;;;;;;;8.27;4.90;;;;;;;;;;5111243;28;20028;-71
2022/07/29 01:38:23;;;;;;;9.55;5.32;;;;;;;;;;5112196;27;20457;-70
2022/07/29 01:40:53;;;;;;;9.18;5.50;;;;;;;;;;5110052;28;20081;-70
2022/07/29 01:43:21;;;;;;;8.43;4.80;;;;;;;;;;5109602;28;20024;-70
2022/07/29 01:48:15;;;;;;;8.45;5.10;;;;;;;;;;5111760;27;20900;-70
2022/07/29 01:50:59;;;;;;;7.07;4.33;;;;;;;;;;5108059;28;20036;-69
2022/07/29 01:53:45;;;;;;;8.80;4.43;;;;;;;;;;5111604;28;20290;-69
2022/07/29 01:56:12;;;;;;;8.63;4.82;;;;;;;;;;5109811;28;20035;-70
2022/07/29 01:58:40;;;;;;;8.43;4.63;;;;;;;;;;5110711;28;20058;-70
2022/07/29 02:01:08;;;;;;;7.53;5.10;;;;;;;;;;5109797;28;20476;-70
2022/07/29 02:05:32;;;;;;;11.85;5.97;;;;;;;;;;5111118;27;20423;-70
2022/07/29 02:10:12;;;;;;;8.57;5.13;;;;;;;;;;5111484;27;20381;-70
2022/07/29 02:12:39;;;;;;;8.07;4.78;;;;;;;;;;5110945;28;20032;-70
2022/07/29 02:15:06;;;;;;;7.60;4.40;;;;;;;;;;5111224;28;20030;-70
2022/07/29 02:19:17;;;;;;;7.90;4.45;;;;;;;;;;5111020;27;20588;-70
2022/07/29 02:21:44;;;;;;;7.72;5.00;;;;;;;;;;5109977;28;20031;-70
2022/07/29 02:24:12;;;;;;;8.82;5.45;;;;;;;;;;5111178;28;20024;-70
2022/07/29 02:26:38;;;;;;;8.63;5.55;;;;;;;;;;5110826;28;20437;-70
2022/07/29 02:29:05;;;;;;;8.82;5.30;;;;;;;;;;5111413;28;20048;-70
2022/07/29 02:33:18;;;;;;;8.07;5.57;;;;;;;;;;5111163;27;20428;-70
2022/07/29 02:37:05;;;;;;;9.48;5.65;;;;;;;;;;5051012;28;20892;-70
2022/07/29 02:40:43;;;;;;;7.93;5.35;;;;;;;;;;5110967;27;20722;-70
2022/07/29 02:46:30;;;;;;;9.90;5.82;;;;;;;;;;5111171;27;20419;-70
2022/07/29 02:49:18;;;;;;;442.50;231.55;;;;;;;;;;5111598;27;20419;-69
2022/07/29 02:54:29;;;;;;;10.40;6.80;;;;;;;;;;5110903;27;20462;-70
2022/07/29 02:56:58;;;;;;;11.35;5.85;;;;;;;;;;5111287;28;20024;-70
2022/07/29 02:59:26;;;;;;;9.13;5.65;;;;;;;;;;5111310;28;20077;-70
2022/07/29 03:02:21;;;;;;;7.45;5.03;;;;;;;;;;5111275;27;20444;-71
2022/07/29 03:04:48;;;;;;;8.27;5.25;;;;;;;;;;5111319;28;20059;-71
2022/07/29 03:07:16;;;;;;;8.35;5.28;;;;;;;;;;5109577;28;20020;-71
2022/07/29 03:09:43;;;;;;;8.98;5.40;;;;;;;;;;5111207;28;20364;-71
2022/07/29 03:12:09;;;;;;;7.55;5.20;;;;;;;;;;5111190;28;20035;-71
2022/07/29 03:14:36;;;;;;;9.85;5.20;;;;;;;;;;5109471;28;20027;-71
2022/07/29 03:17:03;;;;;;;8.43;5.30;;;;;;;;;;5109726;28;20077;-71
2022/07/29 03:19:29;;;;;;;8.85;5.72;;;;;;;;;;5111140;28;20016;-71
2022/07/29 03:22:55;;;;;;;12.05;6.72;;;;;;;;;;5091293;27;20401;-70
2022/07/29 03:25:21;;;;;;;9.77;5.43;;;;;;;;;;5090930;28;20098;-70
2022/07/29 03:27:48;;;;;;;8.85;5.05;;;;;;;;;;5089616;28;20112;-70
2022/07/29 03:30:15;;;;;;;8.82;4.97;;;;;;;;;;5090532;28;20039;-71
2022/07/29 03:32:41;;;;;;;8.45;5.38;;;;;;;;;;5089511;28;20411;-71
2022/07/29 03:35:08;;;;;;;11.05;5.47;;;;;;;;;;5090307;28;20035;-71
2022/07/29 03:37:36;;;;;;;11.68;5.45;;;;;;;;;;5090711;28;20531;-71
2022/07/29 03:40:03;;;;;;;9.40;5.55;;;;;;;;;;5089468;28;20028;-71
2022/07/29 03:42:32;;;;;;;9.63;6.07;;;;;;;;;;5090135;28;20060;-71
2022/07/29 03:44:59;;;;;;;9.68;5.70;;;;;;;;;;5089218;28;20035;-70
2022/07/29 03:47:48;;;;;;;8.15;5.45;;;;;;;;;;5111830;27;20450;-70
2022/07/29 03:54:30;;;;;;;8.73;5.50;;;;;;;;;;5111341;27;20430;-70
2022/07/29 04:03:51;;;;;;;8.70;5.60;;;;;;;;;;5111125;27;20453;-70
2022/07/29 04:08:19;;;;;;;7.80;5.05;;;;;;;;;;5112015;27;20389;-70
2022/07/29 04:10:47;;;;;;;9.43;5.45;;;;;;;;;;5110920;28;20034;-70
2022/07/29 04:13:13;;;;;;;9.15;5.72;;;;;;;;;;5109939;28;20020;-70
2022/07/29 04:19:44;;;;;;;10.13;6.18;;;;;;;;;;5111466;27;20427;-70
2022/07/29 04:22:11;;;;;;;8.57;5.18;;;;;;;;;;5109949;28;20034;-70
2022/07/29 04:24:37;;;;;;;9.25;5.95;;;;;;;;;;5109509;28;20020;-70
2022/07/29 04:28:29;;;;;;;10.35;6.30;;;;;;;;;;5111491;27;20405;-70
2022/07/29 04:30:55;;;;;;;9.40;5.80;;;;;;;;;;5111309;28;20410;-71
2022/07/29 04:34:35;;;;;;;9.95;5.22;;;;;;;;;;5111463;27;20742;-71
2022/07/29 04:37:01;;;;;;;9.27;5.85;;;;;;;;;;5111288;28;20055;-71
2022/07/29 04:39:27;;;;;;;10.98;6.22;;;;;;;;;;5109551;28;20078;-71
2022/07/29 04:41:53;;;;;;;13.23;5.97;;;;;;;;;;5109890;28;20038;-71
2022/07/29 04:48:00;;;;;;;8.35;5.55;;;;;;;;;;5112145;27;20467;-71
2022/07/29 04:50:27;;;;;;;8.48;5.10;;;;;;;;;;5111216;28;20028;-71
2022/07/29 04:52:53;;;;;;;8.48;5.78;;;;;;;;;;5110859;28;20023;-71
2022/07/29 04:55:19;;;;;;;8.93;5.07;;;;;;;;;;5111328;28;20028;-71
2022/07/29 04:57:45;;;;;;;7.50;5.20;;;;;;;;;;5111094;28;20551;-71
2022/07/29 05:00:11;;;;;;;9.90;6.45;;;;;;;;;;5110643;28;20031;-71
2022/07/29 05:04:40;;;;;;;14.35;8.82;;;;;;;;;;5111573;27;20472;-71
2022/07/29 05:07:06;;;;;;;23.38;9.68;;;;;;;;;;5111105;28;20077;-73
2022/07/29 05:10:51;;;;;;;12.98;8.60;;;;;;;;;;5111509;27;20469;-72
2022/07/29 05:15:32;;;;;;;9.25;5.95;;;;;;;;;;5111027;27;20453;-72
2022/07/29 05:17:58;;;;;;;8.13;5.45;;;;;;;;;;5111446;28;20024;-72
2022/07/29 05:20:28;;;;;;;8.52;5.00;;;;;;;;;;5111245;28;20026;-72
2022/07/29 05:22:54;;;;;;;7.15;4.70;;;;;;;;;;5110794;28;20411;-72
2022/07/29 05:25:21;;;;;;;8.77;4.97;;;;;;;;;;5111085;28;20028;-72
2022/07/29 05:29:27;;;;;;;8.50;4.88;;;;;;;;;;5070328;27;20415;-73
2022/07/29 05:32:55;;;;;;;7.57;5.43;;;;;;;;;;5173504;27;20121;-73
2022/07/29 05:36:43;;;;;;;9.10;5.10;;;;;;;;;;5110910;27;20454;-73
2022/07/29 05:39:46;;;;;;;9.75;4.85;;;;;;;;;;5071501;28;20451;-72
2022/07/29 05:42:12;;;;;;;8.80;5.25;;;;;;;;;;5070468;28;20100;-73
2022/07/29 05:44:41;;;;;;;8.60;5.22;;;;;;;;;;5069401;28;20031;-73
2022/07/29 05:47:27;;;;;;;6.63;4.40;;;;;;;;;;5111785;27;20392;-72
2022/07/29 05:49:54;;;;;;;6.82;4.22;;;;;;;;;;5110867;28;20023;-73
2022/07/29 05:53:45;;;;;;;8.07;4.80;;;;;;;;;;5112023;27;20415;-72
2022/07/29 05:56:11;;;;;;;7.97;6.00;;;;;;;;;;5110945;28;20026;-73
2022/07/29 05:58:37;;;;;;;8.50;5.20;;;;;;;;;;5111204;28;20028;-73
2022/07/29 06:01:03;;;;;;;8.07;4.82;;;;;;;;;;5111280;28;20024;-74
2022/07/29 06:03:30;;;;;;;8.77;5.40;;;;;;;;;;5110857;28;20027;-73
2022/07/29 06:05:56;;;;;;;8.60;5.32;;;;;;;;;;5111480;28;20024;-73
2022/07/29 06:08:22;;;;;;;9.40;5.68;;;;;;;;;;5111049;28;20070;-73
2022/07/29 06:10:48;;;;;;;9.63;6.47;;;;;;;;;;5110719;28;20027;-73
2022/07/29 06:13:15;;;;;;;8.57;5.47;;;;;;;;;;5111024;28;20032;-73
2022/07/29 06:15:42;;;;;;;8.30;5.15;;;;;;;;;;5111113;28;20042;-73
2022/07/29 06:18:09;;;;;;;7.65;4.57;;;;;;;;;;5126320;28;20024;-73
2022/07/29 06:20:36;;;;;;;7.20;4.28;;;;;;;;;;5110872;28;20020;-73
2022/07/29 06:23:04;;;;;;;7.15;4.82;;;;;;;;;;5110887;28;20028;-73
2022/07/29 06:25:34;;;;;;;7.85;5.03;;;;;;;;;;5110514;28;20379;-73
2022/07/29 06:28:00;;;;;;;8.73;5.35;;;;;;;;;;5126518;28;20028;-73
2022/07/29 06:30:28;;;;;;;12.63;5.38;;;;;;;;;;5110750;28;20024;-73
2022/07/29 06:33:02;;;;;;;10.88;5.38;;;;;;;;;;5110671;27;20438;-73
2022/07/29 06:35:29;;;;;;;9.15;4.60;;;;;;;;;;5111257;28;20023;-73
2022/07/29 06:37:55;;;;;;;8.90;4.53;;;;;;;;;;5109784;28;20024;-73
2022/07/29 06:45:11;;;;;;;8.55;4.80;;;;;;;;;;5110889;27;20438;-74
2022/07/29 06:47:37;;;;;;;7.95;4.75;;;;;;;;;;5111299;28;20023;-73
2022/07/29 06:50:04;;;;;;;9.35;4.40;;;;;;;;;;5111351;28;20032;-72
2022/07/29 06:52:30;;;;;;;8.45;4.65;;;;;;;;;;5110815;28;20049;-73
2022/07/29 06:54:56;;;;;;;8.85;4.80;;;;;;;;;;5111107;28;20069;-73
2022/07/29 06:57:22;;;;;;;7.60;4.82;;;;;;;;;;5111103;28;20377;-73
2022/07/29 06:59:49;;;;;;;7.18;4.68;;;;;;;;;;5110864;28;20023;-74
2022/07/29 07:02:15;;;;;;;6.35;4.40;;;;;;;;;;5110965;28;20067;-73
2022/07/29 07:04:41;;;;;;;7.95;4.47;;;;;;;;;;5110903;28;20038;-73
2022/07/29 07:07:07;;;;;;;6.82;4.28;;;;;;;;;;5110522;28;20372;-73
2022/07/29 07:09:34;;;;;;;9.32;4.47;;;;;;;;;;5110832;28;20387;-73
2022/07/29 07:12:00;;;;;;;8.27;4.85;;;;;;;;;;5110716;28;20024;-72
2022/07/29 07:14:27;;;;;;;7.47;4.72;;;;;;;;;;5110267;28;20034;-73
2022/07/29 07:16:53;;;;;;;8.43;4.78;;;;;;;;;;5110669;28;20020;-73
2022/07/29 07:19:42;;;;;;;9.55;5.10;;;;;;;;;;5108686;27;20466;-73
2022/07/29 07:22:08;;;;;;;6.82;4.93;;;;;;;;;;5110735;28;20016;-72
2022/07/29 07:24:34;;;;;;;8.00;4.68;;;;;;;;;;5111075;28;20035;-73
2022/07/29 07:27:01;;;;;;;9.88;4.97;;;;;;;;;;5111345;28;20027;-73
2022/07/29 07:29:27;;;;;;;6.85;4.22;;;;;;;;;;5110102;28;20430;-72
2022/07/29 07:31:54;;;;;;;8.43;4.97;;;;;;;;;;5110685;28;20436;-74
2022/07/29 07:34:21;;;;;;;6.60;4.32;;;;;;;;;;5110419;28;20418;-73
2022/07/29 07:36:47;;;;;;;6.57;4.40;;;;;;;;;;5110905;28;20412;-72
2022/07/29 07:40:59;;;;;;;6.97;4.03;;;;;;;;;;5111174;27;20408;-71
2022/07/29 07:43:25;;;;;;;6.60;4.07;;;;;;;;;;5110299;28;20031;-71
2022/07/29 07:45:51;;;;;;;6.05;3.58;;;;;;;;;;5109881;28;20034;-69
2022/07/29 07:48:34;;;;;;;8.95;3.67;;;;;;;;;;5111393;27;20420;-71
2022/07/29 07:51:01;;;;;;;5.82;3.70;;;;;;;;;;5111270;28;20032;-71
2022/07/29 07:53:29;;;;;;;7.00;3.95;;;;;;;;;;5127068;28;20016;-72
2022/07/29 07:55:55;;;;;;;7.55;4.13;;;;;;;;;;5110481;28;20024;-72
2022/07/29 07:58:21;;;;;;;6.65;3.92;;;;;;;;;;5110925;28;20462;-71
2022/07/29 08:01:52;;;;;;;7.97;4.35;;;;;;;;;;5111377;27;20459;-71
2022/07/29 08:04:18;;;;;;;6.32;4.03;;;;;;;;;;5110707;28;20035;-71
2022/07/29 08:06:45;;;;;;;8.05;4.60;;;;;;;;;;5109816;28;20016;-70
2022/07/29 08:09:11;;;;;;;8.02;5.22;;;;;;;;;;5110949;28;20024;-71
2022/07/29 08:11:37;;;;;;;15.55;5.25;;;;;;;;;;5110689;28;20030;-70
2022/07/29 08:14:58;;;;;;;8.07;4.30;;;;;;;;;;5111737;27;20397;-71
2022/07/29 08:20:59;;;;;;;6.88;4.15;;;;;;;;;;5111411;27;20807;-71
2022/07/29 08:23:26;;;;;;;7.25;4.53;;;;;;;;;;5110851;28;20540;-71
2022/07/29 08:25:52;;;;;;;8.25;4.68;;;;;;;;;;5111231;28;20065;-71
2022/07/29 08:28:19;;;;;;;7.07;4.55;;;;;;;;;;5111194;28;20043;-72
2022/07/29 08:30:45;;;;;;;6.65;4.18;;;;;;;;;;5111134;28;20028;-72
2022/07/29 08:33:11;;;;;;;7.70;4.78;;;;;;;;;;5111036;28;20020;-72
2022/07/29 08:35:39;;;;;;;7.25;4.72;;;;;;;;;;5109722;28;20024;-72
2022/07/29 08:38:55;;;;;;;10.05;5.90;;;;;;;;;;5070320;28;20458;-72
2022/07/29 08:41:21;;;;;;;7.22;4.22;;;;;;;;;;5052698;28;20492;-71
2022/07/29 08:43:48;;;;;;;7.38;4.60;;;;;;;;;;5070545;28;20035;-72
2022/07/29 08:46:14;;;;;;;7.43;5.05;;;;;;;;;;5048631;28;20025;-75
2022/07/29 08:48:42;;;;;;;7.60;4.60;;;;;;;;;;5070446;28;20024;-73
2022/07/29 08:51:08;;;;;;;7.22;4.93;;;;;;;;;;5070518;28;20029;-73
2022/07/29 08:53:37;;;;;;;8.90;4.70;;;;;;;;;;5070118;28;20017;-72
2022/07/29 08:56:04;;;;;;;7.15;4.88;;;;;;;;;;5052377;28;20086;-75
2022/07/29 08:58:33;;;;;;;11.30;5.18;;;;;;;;;;5070160;28;20091;-73
2022/07/29 09:01:01;;;;;;;6.50;4.50;;;;;;;;;;5069822;28;20473;-73
2022/07/29 09:03:31;;;;;;;7.30;4.43;;;;;;;;;;5051963;28;20032;-76
2022/07/29 09:05:59;;;;;;;6.60;4.20;;;;;;;;;;5069718;28;20029;-76
2022/07/29 09:08:25;;;;;;;8.05;5.18;;;;;;;;;;5070001;28;20036;-75
2022/07/29 09:10:51;;;;;;;8.05;4.65;;;;;;;;;;5070186;28;20439;-75
2022/07/29 09:13:18;;;;;;;8.45;4.93;;;;;;;;;;5069269;28;20029;-73
2022/07/29 09:15:44;;;;;;;6.60;3.97;;;;;;;;;;5069824;28;20095;-73
2022/07/29 09:18:10;;;;;;;6.18;4.00;;;;;;;;;;5069560;28;20032;-74
2022/07/29 09:23:39;;;;;;;7.50;4.80;;;;;;;;;;5008187;28;20034;-74
2022/07/29 09:26:06;;;;;;;8.02;4.57;;;;;;;;;;5057489;28;20106;-74
2022/07/29 09:28:32;;;;;;;6.07;4.20;;;;;;;;;;5069112;28;20021;-75
2022/07/29 09:30:58;;;;;;;6.75;4.28;;;;;;;;;;5051694;28;20021;-76
2022/07/29 09:33:31;;;;;;;8.05;4.40;;;;;;;;;;5069527;28;20070;-78
2022/07/29 09:36:04;;;;;;;8.27;4.55;;;;;;;;;;5068951;28;20042;-74
2022/07/29 09:38:31;;;;;;;6.82;4.63;;;;;;;;;;5069151;28;20427;-73
2022/07/29 09:40:58;;;;;;;8.32;4.38;;;;;;;;;;5068944;28;20028;-73
2022/07/29 09:43:24;;;;;;;7.15;4.60;;;;;;;;;;5069261;28;20029;-72
2022/07/29 09:45:50;;;;;;;7.75;5.00;;;;;;;;;;5069202;28;20017;-72
2022/07/29 09:48:23;;;;;;;7.63;5.15;;;;;;;;;;5048667;28;20366;-75
2022/07/29 09:50:50;;;;;;;11.25;5.70;;;;;;;;;;5038151;28;20025;-75
2022/07/29 09:53:37;;;;;;;7.30;4.80;;;;;;;;;;5055993;28;20464;-75
2022/07/29 09:56:03;;;;;;;7.45;4.90;;;;;;;;;;5055456;28;20029;-73
2022/07/29 09:58:30;;;;;;;6.68;4.78;;;;;;;;;;5055822;28;20082;-74
2022/07/29 10:00:56;;;;;;;8.23;4.70;;;;;;;;;;5056011;28;20029;-74
2022/07/29 10:03:23;;;;;;;8.38;5.28;;;;;;;;;;5037400;28;20032;-75
2022/07/29 10:06:05;;;;;;;7.47;5.15;;;;;;;;;;5055618;28;20473;-74
2022/07/29 10:08:31;;;;;;;9.05;5.53;;;;;;;;;;5055498;28;20097;-74
2022/07/29 10:11:18;;;;;;;7.20;5.05;;;;;;;;;;5055190;28;20036;-75
2022/07/29 10:13:44;;;;;;;7.50;4.63;;;;;;;;;;5055412;28;20491;-74
2022/07/29 10:16:11;;;;;;;7.18;4.82;;;;;;;;;;5037424;28;20481;-75
2022/07/29 10:18:41;;;;;;;7.25;4.95;;;;;;;;;;5055462;28;20060;-74
2022/07/29 10:21:07;;;;;;;8.75;5.70;;;;;;;;;;5055512;28;20017;-74
2022/07/29 10:23:34;;;;;;;8.45;5.15;;;;;;;;;;5055055;28;20068;-74
2022/07/29 10:26:00;;;;;;;7.65;5.32;;;;;;;;;;5037538;28;20114;-75
2022/07/29 10:28:27;;;;;;;8.52;5.75;;;;;;;;;;5055221;28;20028;-76
2022/07/29 10:30:59;;;;;;;8.45;6.35;;;;;;;;;;5054831;28;20025;-75
2022/07/29 10:33:40;;;;;;;9.20;6.22;;;;;;;;;;5055238;28;20029;-75
2022/07/29 10:36:25;;;;;;;7.65;5.82;;;;;;;;;;5055169;28;20021;-76
2022/07/29 10:39:06;;;;;;;8.93;6.28;;;;;;;;;;5054632;28;20440;-74
2022/07/29 10:41:46;;;;;;;9.13;6.22;;;;;;;;;;5055076;28;20017;-75
2022/07/29 10:44:17;;;;;;;7.28;5.60;;;;;;;;;;5054534;28;20068;-75
2022/07/29 10:46:43;;;;;;;9.43;6.38;;;;;;;;;;5055009;28;20025;-77
2022/07/29 10:49:11;;;;;;;7.60;5.90;;;;;;;;;;5054811;28;20017;-76
2022/07/29 10:51:55;;;;;;;9.75;5.80;;;;;;;;;;5054561;28;20024;-75
2022/07/29 10:54:33;;;;;;;9.13;6.13;;;;;;;;;;5054646;28;20082;-76
2022/07/29 10:57:16;;;;;;;8.13;6.10;;;;;;;;;;5036730;28;20021;-75
2022/07/29 10:59:46;;;;;;;10.10;6.07;;;;;;;;;;5035947;28;20401;-76
2022/07/29 11:02:45;;;;;;;8.38;5.90;;;;;;;;;;5036102;28;20021;-76
2022/07/29 11:05:20;;;;;;;7.55;5.18;;;;;;;;;;5054315;28;20142;-76
2022/07/29 11:08:05;;;;;;;8.02;6.00;;;;;;;;;;5054542;28;20025;-74
2022/07/29 11:10:31;;;;;;;10.82;5.97;;;;;;;;;;5054567;28;20029;-74
2022/07/29 11:12:58;;;;;;;7.00;4.72;;;;;;;;;;5054111;28;20021;-76
2022/07/29 11:15:24;;;;;;;8.35;5.57;;;;;;;;;;5054340;28;20029;-76
2022/07/29 11:18:00;;;;;;;8.68;5.85;;;;;;;;;;5036367;28;20519;-75
2022/07/29 11:20:44;;;;;;;9.00;6.15;;;;;;;;;;5054355;28;20025;-74
2022/07/29 11:23:29;;;;;;;7.72;5.18;;;;;;;;;;5054137;28;20028;-75
2022/07/29 11:26:10;;;;;;;7.55;5.68;;;;;;;;;;5054213;28;20417;-73
2022/07/29 11:28:55;;;;;;;8.23;6.35;;;;;;;;;;5053900;28;20405;-74
2022/07/29 11:31:39;;;;;;;7.57;5.50;;;;;;;;;;5054005;28;20098;-74
2022/07/29 11:34:24;;;;;;;8.57;5.70;;;;;;;;;;5053886;28;20385;-74
2022/07/29 11:37:05;;;;;;;8.30;5.90;;;;;;;;;;5053878;28;20041;-74
2022/07/29 11:39:31;;;;;;;7.00;5.47;;;;;;;;;;5054086;28;20029;-74
2022/07/29 11:42:16;;;;;;;8.27;5.57;;;;;;;;;;5053698;28;20158;-74
2022/07/29 11:45:00;;;;;;;8.52;6.00;;;;;;;;;;5053842;28;20051;-74
2022/07/29 11:47:27;;;;;;;8.38;5.20;;;;;;;;;;5053958;28;20028;-73
2022/07/29 11:49:53;;;;;;;9.93;5.97;;;;;;;;;;5053446;28;20087;-76
2022/07/29 11:52:20;;;;;;;8.23;5.80;;;;;;;;;;5035950;28;20029;-73
2022/07/29 11:54:48;;;;;;;8.00;5.60;;;;;;;;;;5053337;28;20111;-72
2022/07/29 11:57:16;;;;;;;7.32;4.93;;;;;;;;;;5035750;28;20037;-73
2022/07/29 11:59:45;;;;;;;9.90;5.72;;;;;;;;;;5053651;28;20037;-72
2022/07/29 12:02:11;;;;;;;8.25;5.95;;;;;;;;;;5053362;28;20021;-74
2022/07/29 12:04:59;;;;;;;8.15;5.32;;;;;;;;;;5035713;28;20029;-73
2022/07/29 12:07:32;;;;;;;7.95;5.45;;;;;;;;;;5053605;28;20013;-73
2022/07/29 12:09:58;;;;;;;7.93;5.57;;;;;;;;;;5053084;28;20539;-74
2022/07/29 12:12:25;;;;;;;7.85;5.00;;;;;;;;;;5053295;28;20104;-76
2022/07/29 12:14:51;;;;;;;7.40;5.32;;;;;;;;;;5053502;28;20021;-73
2022/07/29 12:17:29;;;;;;;8.77;4.75;;;;;;;;;;5034914;28;20029;-74
2022/07/29 12:19:59;;;;;;;7.35;4.55;;;;;;;;;;5053134;28;20023;-73
2022/07/29 12:22:29;;;;;;;7.38;5.03;;;;;;;;;;5053135;28;20036;-73
2022/07/29 12:24:56;;;;;;;8.85;4.75;;;;;;;;;;5053072;28;20017;-75
2022/07/29 12:27:23;;;;;;;7.07;5.22;;;;;;;;;;5053168;28;20109;-75
2022/07/29 12:30:00;;;;;;;6.38;4.75;;;;;;;;;;5052695;28;20078;-74
2022/07/29 12:32:36;;;;;;;5.53;4.25;;;;;;;;;;5053319;28;20048;-75
2022/07/29 12:35:04;;;;;;;11.80;4.90;;;;;;;;;;5053183;28;20017;-73
2022/07/29 12:37:30;;;;;;;6.38;4.35;;;;;;;;;;5052377;28;20037;-74
2022/07/29 12:39:56;;;;;;;6.22;4.38;;;;;;;;;;5053165;28;20053;-75
2022/07/29 12:42:22;;;;;;;6.60;4.78;;;;;;;;;;5035275;28;20075;-72
2022/07/29 12:44:50;;;;;;;6.13;4.07;;;;;;;;;;5052812;28;20508;-74
2022/07/29 12:47:17;;;;;;;5.97;4.38;;;;;;;;;;5035324;28;20040;-74
2022/07/29 12:49:44;;;;;;;7.35;4.45;;;;;;;;;;5035159;28;20025;-73
2022/07/29 12:52:29;;;;;;;7.57;4.68;;;;;;;;;;5052827;28;20491;-73
2022/07/29 12:54:55;;;;;;;7.38;4.90;;;;;;;;;;5053058;28;20032;-75
2022/07/29 12:57:23;;;;;;;6.00;4.60;;;;;;;;;;5052586;28;20043;-76
2022/07/29 13:00:10;;;;;;;7.30;4.55;;;;;;;;;;5052530;28;20100;-77
2022/07/29 13:02:36;;;;;;;5.95;4.47;;;;;;;;;;5052785;28;20049;-79
2022/07/29 13:05:03;;;;;;;7.43;5.20;;;;;;;;;;5052737;28;20481;-75
2022/07/29 13:07:31;;;;;;;6.35;4.28;;;;;;;;;;5052981;28;20059;-75
2022/07/29 13:10:11;;;;;;;5.78;3.88;;;;;;;;;;5035039;28;20013;-74
2022/07/29 13:12:38;;;;;;;5.55;4.07;;;;;;;;;;5052544;28;20028;-74
2022/07/29 13:15:14;;;;;;;7.53;4.90;;;;;;;;;;5052854;28;20168;-74
2022/07/29 13:17:42;;;;;;;6.50;4.30;;;;;;;;;;5034846;28;20029;-74
2022/07/29 13:20:12;;;;;;;7.00;4.35;;;;;;;;;;5034478;28;20017;-74
2022/07/29 13:22:39;;;;;;;6.38;3.97;;;;;;;;;;5052816;28;20478;-74
2022/07/29 13:25:08;;;;;;;5.25;3.85;;;;;;;;;;5055548;28;20094;-74
2022/07/29 13:27:37;;;;;;;6.43;3.75;;;;;;;;;;5055671;28;20507;-74
2022/07/29 13:30:07;;;;;;;5.90;3.92;;;;;;;;;;5056460;28;20037;-74
2022/07/29 13:32:37;;;;;;;5.25;3.70;;;;;;;;;;5038443;28;20044;-75
2022/07/29 13:35:04;;;;;;;6.22;3.55;;;;;;;;;;5056260;28;20041;-75
2022/07/29 13:37:32;;;;;;;5.95;3.85;;;;;;;;;;5055991;28;20052;-75
2022/07/29 13:39:59;;;;;;;5.18;3.70;;;;;;;;;;5056383;28;20384;-75
2022/07/29 13:42:26;;;;;;;4.80;3.67;;;;;;;;;;5055755;28;20171;-75
2022/07/29 13:44:52;;;;;;;6.10;3.88;;;;;;;;;;5056249;28;20358;-74
2022/07/29 13:47:19;;;;;;;5.18;3.38;;;;;;;;;;5055576;28;20025;-74
2022/07/29 13:49:46;;;;;;;6.78;3.40;;;;;;;;;;5056077;28;20392;-74
2022/07/29 13:52:12;;;;;;;6.07;4.30;;;;;;;;;;5056089;28;20017;-74
2022/07/29 13:54:38;;;;;;;5.35;3.83;;;;;;;;;;5055516;28;20470;-73
2022/07/29 13:57:05;;;;;;;4.25;3.17;;;;;;;;;;5055817;28;20033;-74
2022/07/29 13:59:31;;;;;;;5.65;3.97;;;;;;;;;;5056105;28;20083;-75
2022/07/29 14:01:57;;;;;;;9.13;3.75;;;;;;;;;;5055544;28;20358;-76
2022/07/29 14:04:23;;;;;;;5.03;3.40;;;;;;;;;;5038023;28;20033;-75
2022/07/29 14:06:50;;;;;;;5.22;2.92;;;;;;;;;;5055758;28;20032;-74
2022/07/29 14:09:16;;;;;;;5.35;3.58;;;;;;;;;;5055570;28;20055;-74
2022/07/29 14:11:43;;;;;;;4.93;3.10;;;;;;;;;;5055702;28;20508;-77
2022/07/29 14:14:10;;;;;;;4.63;3.13;;;;;;;;;;5055695;28;20056;-75
2022/07/29 14:16:36;;;;;;;4.85;3.53;;;;;;;;;;5055357;28;20025;-75
2022/07/29 14:19:03;;;;;;;4.47;3.25;;;;;;;;;;5055668;28;20033;-73
2022/07/29 14:21:30;;;;;;;4.80;3.25;;;;;;;;;;5037680;28;20029;-75
2022/07/29 14:23:56;;;;;;;4.80;3.40;;;;;;;;;;5055119;28;20021;-74
2022/07/29 14:26:22;;;;;;;4.30;3.00;;;;;;;;;;5055614;28;20033;-74
2022/07/29 14:28:49;;;;;;;5.32;3.58;;;;;;;;;;5037516;28;20559;-74
2022/07/29 14:31:15;;;;;;;5.03;3.50;;;;;;;;;;5054975;28;20064;-73
2022/07/29 14:33:42;;;;;;;3.70;2.83;;;;;;;;;;5055193;28;20052;-75
2022/07/29 14:36:09;;;;;;;4.32;3.15;;;;;;;;;;5055115;28;20424;-75
2022/07/29 14:38:35;;;;;;;3.60;2.78;;;;;;;;;;5054591;28;20083;-74
2022/07/29 14:41:02;;;;;;;4.10;3.10;;;;;;;;;;5055220;28;20017;-75
2022/07/29 14:43:28;;;;;;;5.22;3.40;;;;;;;;;;5036919;28;20378;-75
2022/07/29 14:45:54;;;;;;;5.32;3.45;;;;;;;;;;5055229;28;20442;-75
2022/07/29 14:48:20;;;;;;;4.63;2.90;;;;;;;;;;5037145;28;20025;-74
2022/07/29 14:50:46;;;;;;;5.47;3.15;;;;;;;;;;5054600;28;20035;-75
2022/07/29 14:53:12;;;;;;;5.13;3.17;;;;;;;;;;5054968;28;20483;-74
2022/07/29 14:55:40;;;;;;;3.50;3.08;;;;;;;;;;5054933;28;20028;-74
2022/07/29 14:58:06;;;;;;;4.13;3.20;;;;;;;;;;5054311;28;20123;-75
2022/07/29 15:00:33;;;;;;;3.72;2.80;;;;;;;;;;5036938;28;20025;-75
2022/07/29 15:03:00;;;;;;;4.05;3.30;;;;;;;;;;5036842;28;20021;-75
2022/07/29 15:05:26;;;;;;;4.18;3.13;;;;;;;;;;5036612;28;20040;-77
2022/07/29 15:07:53;;;;;;;4.53;3.15;;;;;;;;;;5036827;28;20021;-75
2022/07/29 15:10:19;;;;;;;4.10;2.60;;;;;;;;;;5054890;28;20063;-76
2022/07/29 15:12:45;;;;;;;4.65;3.13;;;;;;;;;;5054242;28;20214;-76
2022/07/29 15:15:11;;;;;;;3.25;2.60;;;;;;;;;;5054623;28;20056;-76
2022/07/29 15:17:37;;;;;;;5.57;2.80;;;;;;;;;;5054548;28;20025;-74
2022/07/29 15:20:04;;;;;;;6.78;3.03;;;;;;;;;;5054041;28;20036;-75
2022/07/29 15:22:30;;;;;;;4.75;2.97;;;;;;;;;;5054436;28;20469;-75
2022/07/29 15:24:56;;;;;;;3.22;2.80;;;;;;;;;;5054266;28;20029;-75
2022/07/29 15:27:22;;;;;;;3.60;2.67;;;;;;;;;;5053873;28;20025;-76
2022/07/29 15:29:48;;;;;;;4.18;2.85;;;;;;;;;;5054202;28;20044;-76
2022/07/29 15:32:15;;;;;;;3.58;2.92;;;;;;;;;;5036330;28;20021;-76
2022/07/29 15:34:41;;;;;;;4.45;2.80;;;;;;;;;;5053799;28;20033;-76
2022/07/29 15:37:07;;;;;;;6.05;3.20;;;;;;;;;;5053874;28;20041;-76
2022/07/29 15:39:33;;;;;;;4.30;2.90;;;;;;;;;;5054135;28;20032;-76
2022/07/29 15:41:59;;;;;;;5.00;2.90;;;;;;;;;;5053570;28;20017;-77
2022/07/29 15:44:26;;;;;;;3.95;2.90;;;;;;;;;;5054000;28;20044;-76
2022/07/29 15:47:07;;;;;;;4.00;3.17;;;;;;;;;;5053339;28;20428;-76
2022/07/29 15:49:34;;;;;;;4.97;2.90;;;;;;;;;;5036048;28;20029;-76
2022/07/29 15:52:08;;;;;;;4.43;2.83;;;;;;;;;;5053908;28;20021;-76
2022/07/29 15:54:35;;;;;;;4.25;2.70;;;;;;;;;;5053559;28;20096;-76
2022/07/29 15:57:02;;;;;;;5.03;3.50;;;;;;;;;;5053770;28;20442;-75
2022/07/29 15:59:28;;;;;;;5.38;3.28;;;;;;;;;;5035978;28;20040;-76
2022/07/29 16:01:54;;;;;;;5.68;3.40;;;;;;;;;;5053618;28;20499;-76
2022/07/29 16:04:21;;;;;;;4.53;2.88;;;;;;;;;;5053688;28;20033;-75
2022/07/29 16:06:47;;;;;;;4.50;3.38;;;;;;;;;;5035676;28;20047;-75
2022/07/29 16:09:14;;;;;;;4.93;3.10;;;;;;;;;;5053178;28;20021;-75
2022/07/29 16:11:40;;;;;;;4.90;3.50;;;;;;;;;;5035482;28;20025;-75
2022/07/29 16:14:06;;;;;;;5.57;3.38;;;;;;;;;;5053398;28;20050;-75
2022/07/29 16:16:32;;;;;;;6.22;3.35;;;;;;;;;;5035323;28;20050;-76
2022/07/29 16:18:59;;;;;;;5.55;3.38;;;;;;;;;;5053401;28;20481;-76
2022/07/29 16:21:25;;;;;;;6.40;3.42;;;;;;;;;;5053355;28;20458;-74
2022/07/29 16:23:51;;;;;;;4.43;3.33;;;;;;;;;;5053013;28;20055;-75
2022/07/29 16:26:17;;;;;;;4.53;3.35;;;;;;;;;;5053372;28;20013;-75
2022/07/29 16:28:43;;;;;;;4.85;3.22;;;;;;;;;;5053368;28;20021;-75
2022/07/29 16:31:10;;;;;;;5.25;3.08;;;;;;;;;;5052819;28;20029;-75
2022/07/29 16:33:36;;;;;;;5.10;3.22;;;;;;;;;;5053388;28;20025;-76
2022/07/29 16:36:02;;;;;;;5.32;3.65;;;;;;;;;;5052795;28;20036;-76